• Join FlightAware (Why Join?)
  • Login
  • US Flag 
Rudolph Flight #1: Arrived! 
12:07PM EST


 

Airport Tracker/Info


-or-


 

Live Flight TrackerFlight Track Log ✈ N234CE ✈ 19-Sep-2013 ✈ PACX / CXF - PAFA / FAI

Flight Track Log - Related Links

Times and Time Zones

All times are in EDT time to prevent confusion due to time zone crossing. See the N234CE flight status page for this flight to view local times or setup timezone preferences in your user account.

Time Position Orientation Groundspeed Altitude Reporting Facility
EDT Latitude Longitude Course Direction KTS MPH feet Rate Location/Type
05:48PM 67.1167 -150.4667 243° Southwest 120 138 6,000  Level Anchorage Center
05:49PM 67.0833 -150.4667 180° South 140 161 6,900 840 Climbing Anchorage Center
05:50PM 67.0667 -150.4000 123° Southeast 180 207 7,800 900 Climbing Anchorage Center
05:51PM 67.0204 -149.9588 158° South  Level Estimated
05:51PM 67.0333 -150.3667 159° South 100 115 8,700  Level Anchorage Center
05:52PM 66.9816 -149.9189 158° South  Level FlightAware Approximate
05:52PM 66.9833 -150.3167 159° South 190 219 9,000  Level Anchorage Center
05:53PM 66.9500 -150.2667 150° Southeast 190 219 9,000  Level Anchorage Center
05:54PM 66.9000 -150.2167 159° South 160 184 9,000  Level Anchorage Center
05:55PM 66.8667 -150.1500 142° Southeast 170 196 9,000  Level Anchorage Center
05:56PM 66.8167 -150.1000 159° South 180 207 9,000  Level Anchorage Center
05:57PM 66.7667 -150.0500 158° South 180 207 9,000  Level Anchorage Center
05:58PM 66.7333 -150.0000 149° Southeast 170 196 9,000  Level Anchorage Center
05:59PM 66.6833 -149.9500 158° South 160 184 9,000  Level Anchorage Center
06:00PM 66.6333 -149.8833 152° Southeast 170 196 9,000  Level Anchorage Center
06:01PM 66.6000 -149.8333 149° Southeast 180 207 9,000  Level Anchorage Center
06:02PM 66.5500 -149.8000 165° South 160 184 9,000  Level Anchorage Center
06:03PM 66.5000 -149.7500 158° South 170 196 9,000  Level Anchorage Center
06:04PM 66.4667 -149.6833 141° Southeast 180 207 9,000  Level Anchorage Center
06:05PM 66.4167 -149.6333 158° South 170 196 9,000  Level Anchorage Center
06:06PM 66.3667 -149.5833 158° South 170 196 9,000  Level Anchorage Center
06:07PM 66.3333 -149.5167 141° Southeast 170 196 9,000  Level Anchorage Center
06:08PM 66.2833 -149.4333 146° Southeast 180 207 9,000  Level Anchorage Center
06:09PM 66.2333 -149.3833 158° South 170 196 9,000  Level Anchorage Center
06:10PM 66.2000 -149.3333 149° Southeast 180 207 9,000  Level Anchorage Center
06:11PM 66.1500 -149.2833 158° South 190 219 9,000  Level Anchorage Center
06:12PM 66.1000 -149.2333 158° South 180 207 9,000  Level Anchorage Center
06:13PM 66.0667 -149.1833 149° Southeast 180 207 9,000  Level Anchorage Center
06:14PM 66.0167 -149.1333 158° South 190 219 9,000  Level Anchorage Center
06:15PM 65.9667 -149.0833 158° South 170 196 9,000  Level Anchorage Center
06:16PM 65.9167 -149.0333 158° South 180 207 9,000  Level Anchorage Center
06:17PM 65.8833 -148.9833 148° Southeast 180 207 9,000  Level Anchorage Center
06:18PM 65.8333 -148.9333 158° South 170 196 9,000 60 Level Anchorage Center
06:19PM 65.7833 -148.8833 158° South 180 207 9,200  Climbing Anchorage Center
06:20PM 65.7500 -148.8500 158° South 170 196 9,100 -60 Descending Anchorage Center
06:21PM 65.7000 -148.8000 158° South 180 207 9,100  Level Anchorage Center
06:22PM 65.6500 -148.7500 158° South 180 207 9,100 -60 Level Anchorage Center
06:23PM 65.6000 -148.7000 158° South 180 207 9,000 -240 Descending Anchorage Center
06:24PM 65.5667 -148.6500 148° Southeast 180 207 8,700 -300 Descending Anchorage Center
06:25PM 65.5167 -148.5833 151° Southeast 190 219 8,500 -300 Descending Anchorage Center
06:26PM 65.4667 -148.5333 157° South 190 219 8,200 -300 Descending Anchorage Center
06:28PM 65.4207 -148.4615 147° Southeast  Level FlightAware Approximate
06:35PM 65.1322 -148.1378 162° South  Level FlightAware Approximate
06:36PM 65.0888 -148.1042 162° South  Level FlightAware Approximate
06:37PM 65.0458 -148.0676 160° South  Level FlightAware Approximate
06:38PM 65.0029 -148.0306 160° South  Level FlightAware Approximate
06:39PM 64.9600 -147.9938 160° South  Level FlightAware Approximate
06:40PM 64.9171 -147.9571 160° South  Level FlightAware Approximate
06:41PM 64.8741 -147.9205 160° South  Level FlightAware Approximate
06:42PM 64.8316 -147.8816 157° South  Level FlightAware Approximate
06:43PM 64.8151 -147.8564 157° South  Level Estimated
06:44PM 64.8151 -147.8564 157° South  Level Estimated
06:45PM 64.8151 -147.8564 157° South  Level Estimated
06:46PM 64.8151 -147.8564 157° South  Level Estimated
06:47PM 64.8151 -147.8564 157° South  Level Estimated
06:48PM 64.8151 -147.8564 157° South  Level Estimated
06:49PM 64.8151 -147.8564 157° South  Level Estimated
06:50PM 64.8151 -147.8564 157° South  Level Estimated
06:51PM 64.8151 -147.8564 157° South  Level Estimated
06:52PM 64.8151 -147.8564 157° South  Level Estimated
06:53PM 64.8151 -147.8564 157° South  Level Estimated
06:54PM 64.8151 -147.8564 157° South  Level Estimated
06:55PM 64.8151 -147.8564 157° South  Level Estimated
06:56PM 64.8151 -147.8564 157° South  Level Estimated
06:57PM 64.8151 -147.8564 157° South  Level Estimated
06:58PM 64.8151 -147.8564 157° South  Level Estimated
06:59PM 64.8151 -147.8564 157° South  Level Estimated